Terminal Aerodrome Forecast
Issued by NWS

Home | Current Version | Previous Version | Graphics & Text | Print | Product List | Glossary On
Versions: 1 2 3 4 5 6 7 8 9 10 11 12 13 14 15 16 17 18
000
FTUS43 KTOP 180300 AAA
TAFFOE
TAF AMD
KFOE 180320Z 1803/1824 09004KT P6SM BKN025 OVC035
     FM180400 11007KT 4SM -SN BR OVC013
     FM180430 09007KT 1SM -SN BR OVC003
     FM180900 08006KT 4SM -SN BR OVC003=

USA.gov is the U.S. government's official web portal to all federal, state and local government web resources and services.